Terminal Aerodrome Forecast
Issued by NWS

Home | Current Version | Previous Version | Text Only | Print | Product List | Glossary On
Versions: 1 2 3 4 5 6 7 8 9 10 11 12 13
000
FTUS42 KMHX 251126
TAFPGV
TAF
KPGV 251126Z 2512/2612 23004KT 4SM BR SKC
     FM251300 22006KT P6SM SCT250
     FM251600 21008KT P6SM SCT040
     FM261000 24003KT 5SM BR SCT250
      AMD LTD TO CLD VIS AND WIND=

USA.gov is the U.S. government's official web portal to all federal, state and local government web resources and services.